createdAt,value
2023-05-15T00:00:06.373Z,990.42
2023-05-15T00:00:36.869Z,990.42
2023-05-15T00:01:08.544Z,990.31
2023-05-15T00:01:39.709Z,990.31
2023-05-15T00:02:11.499Z,990.42
2023-05-15T00:02:37.120Z,990.52
2023-05-15T00:02:59.969Z,990.52
2023-05-15T00:03:16.364Z,990.52
2023-05-15T00:03:37.426Z,990.21
2023-05-15T00:04:03.642Z,990.21
2023-05-15T00:04:36.046Z,990.21
2023-05-15T00:05:08.524Z,989.91
2023-05-15T00:05:39.553Z,989.91
2023-05-15T00:05:56.609Z,990.01
2023-05-15T00:06:27.503Z,990.01
2023-05-15T00:06:59.825Z,990.42
2023-05-15T00:07:16.134Z,990.42
2023-05-15T00:07:37.148Z,990.21
2023-05-15T00:08:03.698Z,990.21
2023-05-15T00:08:35.974Z,990.21
2023-05-15T00:09:07.669Z,990.11
2023-05-15T00:09:39.562Z,990.11
2023-05-15T00:09:56.185Z,990.11
2023-05-15T00:10:28.254Z,990.11
2023-05-15T00:11:02.051Z,990.42
2023-05-15T00:11:16.101Z,990.42
2023-05-15T00:11:37.230Z,989.91
2023-05-15T00:12:03.649Z,989.91
2023-05-15T00:12:36.578Z,989.91
2023-05-15T00:13:07.673Z,990.11
2023-05-15T00:13:39.485Z,990.11
2023-05-15T00:13:56.165Z,990.11
2023-05-15T00:14:27.577Z,990.11
2023-05-15T00:14:59.724Z,990.11
2023-05-15T00:15:17.116Z,990.11
2023-05-15T00:15:37.160Z,990.21
2023-05-15T00:16:03.780Z,990.21
2023-05-15T00:16:36.234Z,990.21
2023-05-15T00:17:07.643Z,990.21
2023-05-15T00:17:39.691Z,990.21
2023-05-15T00:17:56.282Z,990.21
2023-05-15T00:18:27.623Z,990.21
2023-05-15T00:18:59.718Z,990.42
2023-05-15T00:19:16.386Z,990.42
2023-05-15T00:19:37.089Z,990.21
2023-05-15T00:20:05.221Z,990.21
2023-05-15T00:20:36.034Z,990.21
2023-05-15T00:21:07.490Z,990.01
2023-05-15T00:21:39.519Z,990.01
2023-05-15T00:21:56.317Z,990.11
2023-05-15T00:22:27.533Z,990.11
2023-05-15T00:22:59.883Z,990.11
2023-05-15T00:23:16.638Z,990.11
2023-05-15T00:23:37.225Z,990.21
2023-05-15T00:24:03.632Z,990.21
2023-05-15T00:24:36.121Z,990.21
2023-05-15T00:25:08.223Z,990.11
2023-05-15T00:25:39.537Z,990.11
2023-05-15T00:25:56.513Z,990.11
2023-05-15T00:26:27.540Z,990.11
2023-05-15T00:26:59.700Z,990.11
2023-05-15T00:27:16.120Z,990.11
2023-05-15T00:27:37.051Z,990.21
2023-05-15T00:28:03.665Z,990.21
2023-05-15T00:28:35.983Z,990.21
2023-05-15T00:29:07.554Z,990.01
2023-05-15T00:29:39.446Z,990.01
2023-05-15T00:29:56.258Z,990.01
2023-05-15T00:30:28.531Z,990.01
2023-05-15T00:30:59.825Z,990.21
2023-05-15T00:31:16.365Z,990.21
2023-05-15T00:31:37.118Z,989.91
2023-05-15T00:32:03.620Z,989.91
2023-05-15T00:32:36.713Z,989.91
2023-05-15T00:33:07.918Z,990.11
2023-05-15T00:33:39.509Z,990.11
2023-05-15T00:33:56.246Z,990.01
2023-05-15T00:34:27.542Z,990.01
2023-05-15T00:34:59.823Z,990.11
2023-05-15T00:35:16.615Z,990.11
2023-05-15T00:35:37.214Z,989.91
2023-05-15T00:36:03.736Z,989.91
2023-05-15T00:36:37.779Z,989.91
2023-05-15T00:37:08.543Z,990.21
2023-05-15T00:37:39.608Z,990.21
2023-05-15T00:37:56.422Z,990.11
2023-05-15T00:38:27.511Z,990.11
2023-05-15T00:38:59.707Z,990.11
2023-05-15T00:39:16.218Z,990.11
2023-05-15T00:39:37.299Z,990.11
2023-05-15T00:40:05.283Z,990.11
2023-05-15T00:40:36.612Z,990.11
2023-05-15T00:41:07.740Z,990.01
2023-05-15T00:41:39.496Z,990.01
2023-05-15T00:41:56.366Z,990.01
2023-05-15T00:42:27.476Z,990.01
2023-05-15T00:42:59.890Z,990.11
2023-05-15T00:43:16.312Z,990.11
2023-05-15T00:43:37.123Z,990.01
2023-05-15T00:44:03.613Z,990.01
2023-05-15T00:44:36.051Z,990.01
2023-05-15T00:45:08.811Z,989.91
2023-05-15T00:45:39.581Z,989.91
2023-05-15T00:45:56.808Z,989.91
2023-05-15T00:46:27.527Z,989.91
2023-05-15T00:46:59.878Z,990.01
2023-05-15T00:47:31.928Z,990.01
2023-05-15T00:48:03.783Z,990.11
2023-05-15T00:48:36.033Z,990.11
2023-05-15T00:49:07.627Z,990.21
2023-05-15T00:49:39.527Z,990.21
2023-05-15T00:49:56.343Z,990.11
2023-05-15T00:50:28.415Z,990.11
2023-05-15T00:50:59.734Z,989.91
2023-05-15T00:51:16.337Z,989.91
2023-05-15T00:51:37.106Z,990.11
2023-05-15T00:52:03.720Z,990.11
2023-05-15T00:52:36.008Z,990.11
2023-05-15T00:53:07.542Z,989.91
2023-05-15T00:53:39.551Z,989.91
2023-05-15T00:53:56.388Z,990.01
2023-05-15T00:54:27.817Z,990.01
2023-05-15T00:54:59.722Z,989.91
2023-05-15T00:55:16.911Z,989.91
2023-05-15T00:55:37.166Z,989.74
2023-05-15T00:56:03.626Z,989.74
2023-05-15T00:56:36.565Z,989.74
2023-05-15T00:57:07.829Z,989.84
2023-05-15T00:57:39.550Z,989.84
2023-05-15T00:57:56.234Z,989.91
2023-05-15T00:58:27.454Z,989.91
2023-05-15T00:58:59.816Z,989.84
2023-05-15T00:59:16.253Z,989.84
2023-05-15T00:59:37.677Z,989.91
2023-05-15T01:00:05.761Z,989.91
2023-05-15T01:00:36.155Z,989.91
2023-05-15T01:01:08.733Z,990.01
2023-05-15T01:01:39.505Z,990.01
2023-05-15T01:01:56.372Z,990.01
2023-05-15T01:02:27.513Z,990.01
2023-05-15T01:02:59.970Z,989.91
2023-05-15T01:03:16.310Z,989.91
2023-05-15T01:03:37.194Z,989.84
2023-05-15T01:04:03.564Z,989.84
2023-05-15T01:04:36.057Z,989.84
2023-05-15T01:05:08.335Z,989.74
2023-05-15T01:05:39.511Z,989.74
2023-05-15T01:05:56.531Z,989.91
2023-05-15T01:06:27.747Z,989.91
2023-05-15T01:06:59.779Z,989.84
2023-05-15T01:07:16.515Z,989.84
2023-05-15T01:07:37.123Z,989.91
2023-05-15T01:08:03.857Z,989.91
2023-05-15T01:08:36.590Z,989.91
2023-05-15T01:09:07.677Z,989.84
2023-05-15T01:09:39.504Z,989.84
2023-05-15T01:09:56.232Z,989.84
2023-05-15T01:10:28.036Z,989.84
2023-05-15T01:10:59.850Z,989.91
2023-05-15T01:11:32.019Z,989.91
2023-05-15T01:12:03.619Z,989.91
2023-05-15T01:12:36.532Z,989.91
2023-05-15T01:13:07.577Z,989.91
2023-05-15T01:13:39.568Z,989.91
2023-05-15T01:13:56.338Z,989.74
2023-05-15T01:14:27.592Z,989.74
2023-05-15T01:14:59.875Z,989.84
2023-05-15T01:15:15.653Z,989.84
2023-05-15T01:15:35.931Z,989.84
2023-05-15T01:16:02.804Z,989.84
2023-05-15T01:16:35.153Z,989.84
2023-05-15T01:17:06.845Z,989.53
2023-05-15T01:17:38.802Z,989.53
2023-05-15T01:17:55.165Z,989.74
2023-05-15T01:18:26.383Z,989.74
2023-05-15T01:18:59.011Z,989.64
2023-05-15T01:19:31.020Z,989.64
2023-05-15T01:20:03.391Z,989.84
2023-05-15T01:20:34.694Z,989.84
2023-05-15T01:21:06.783Z,989.64
2023-05-15T01:21:38.599Z,989.64
2023-05-15T01:21:54.736Z,989.84
2023-05-15T01:22:26.169Z,989.84
2023-05-15T01:22:58.810Z,989.74
2023-05-15T01:23:30.626Z,989.74
2023-05-15T01:24:02.919Z,989.84
2023-05-15T01:24:34.698Z,989.84
2023-05-15T01:25:07.737Z,989.74
2023-05-15T01:25:38.621Z,989.74
2023-05-15T01:25:55.783Z,989.64
2023-05-15T01:26:26.806Z,989.64
2023-05-15T01:26:58.519Z,989.74
2023-05-15T01:27:15.581Z,989.74
2023-05-15T01:27:36.164Z,989.64
2023-05-15T01:28:02.399Z,989.64
2023-05-15T01:28:35.212Z,989.64
2023-05-15T01:29:06.300Z,989.64
2023-05-15T01:29:38.603Z,989.64
2023-05-15T01:29:55.166Z,989.74
2023-05-15T01:30:27.958Z,989.74
2023-05-15T01:30:58.539Z,989.64
2023-05-15T01:31:14.922Z,989.64
2023-05-15T01:31:36.104Z,989.84
2023-05-15T01:32:02.540Z,989.84
2023-05-15T01:32:35.068Z,989.84
2023-05-15T01:33:06.430Z,989.64
2023-05-15T01:33:39.006Z,989.64
2023-05-15T01:33:55.141Z,989.74
2023-05-15T01:34:26.449Z,989.74
2023-05-15T01:34:58.463Z,989.74
2023-05-15T01:35:15.039Z,989.74
2023-05-15T01:35:35.607Z,989.64
2023-05-15T01:36:02.874Z,989.64
2023-05-15T01:36:36.207Z,989.64
2023-05-15T01:37:07.283Z,989.53
2023-05-15T01:37:39.148Z,989.53
2023-05-15T01:37:56.350Z,989.53
2023-05-15T01:38:26.664Z,989.53
2023-05-15T01:39:04.187Z,989.64
2023-05-15T01:39:24.642Z,989.64
2023-05-15T01:39:39.196Z,989.84
2023-05-15T01:40:06.570Z,989.84
2023-05-15T01:40:37.480Z,989.84
2023-05-15T01:41:08.682Z,989.84
2023-05-15T01:41:39.902Z,989.84
2023-05-15T01:41:56.339Z,989.64
2023-05-15T01:42:27.708Z,989.64
2023-05-15T01:42:59.810Z,989.53
2023-05-15T01:43:16.197Z,989.53
2023-05-15T01:43:37.220Z,989.84
2023-05-15T01:44:03.728Z,989.84
2023-05-15T01:44:36.146Z,989.84
2023-05-15T01:45:09.097Z,989.64
2023-05-15T01:45:39.771Z,989.64
2023-05-15T01:45:56.947Z,989.64
2023-05-15T01:46:29.708Z,989.64
2023-05-15T01:46:59.611Z,989.74
2023-05-15T01:47:16.209Z,989.74
2023-05-15T01:47:37.197Z,989.43
2023-05-15T01:48:03.877Z,989.43
2023-05-15T01:48:36.298Z,989.43
2023-05-15T01:49:07.685Z,989.53
2023-05-15T01:49:39.694Z,989.53
2023-05-15T01:49:56.207Z,989.74
2023-05-15T01:50:28.523Z,989.74
2023-05-15T01:50:59.671Z,989.74
2023-05-15T01:51:16.047Z,989.74
2023-05-15T01:51:37.322Z,989.43
2023-05-15T01:52:03.774Z,989.43
2023-05-15T01:52:36.187Z,989.43
2023-05-15T01:53:07.673Z,989.43
2023-05-15T01:53:39.708Z,989.43
2023-05-15T01:53:56.140Z,989.74
2023-05-15T01:54:28.114Z,989.74
2023-05-15T01:54:59.742Z,989.64
2023-05-15T01:55:16.623Z,989.64
2023-05-15T01:55:37.214Z,989.53
2023-05-15T01:56:03.852Z,989.53
2023-05-15T01:56:36.426Z,989.53
2023-05-15T01:57:07.710Z,989.64
2023-05-15T01:57:39.781Z,989.64
2023-05-15T01:57:56.305Z,989.53
2023-05-15T01:58:27.701Z,989.53
2023-05-15T01:58:59.673Z,989.74
2023-05-15T01:59:16.068Z,989.74
2023-05-15T01:59:37.226Z,989.64
2023-05-15T02:00:05.931Z,989.64
2023-05-15T02:00:36.631Z,989.64
2023-05-15T02:01:08.265Z,989.64
2023-05-15T02:01:39.784Z,989.64
2023-05-15T02:01:56.366Z,989.64
2023-05-15T02:02:27.755Z,989.64
2023-05-15T02:02:59.945Z,989.23
2023-05-15T02:03:16.346Z,989.23
2023-05-15T02:03:37.723Z,989.53
2023-05-15T02:04:03.763Z,989.53
2023-05-15T02:04:36.881Z,989.53
2023-05-15T02:05:08.669Z,989.64
2023-05-15T02:05:39.741Z,989.64
2023-05-15T02:05:56.536Z,989.64
2023-05-15T02:06:27.577Z,989.64
2023-05-15T02:06:59.710Z,989.53
2023-05-15T02:07:31.770Z,989.53
2023-05-15T02:08:03.818Z,989.53
2023-05-15T02:08:36.810Z,989.53
2023-05-15T02:09:07.656Z,989.43
2023-05-15T02:09:39.759Z,989.43
2023-05-15T02:09:56.291Z,989.53
2023-05-15T02:10:28.305Z,989.53
2023-05-15T02:10:59.744Z,989.53
2023-05-15T02:11:16.226Z,989.53
2023-05-15T02:11:37.304Z,989.43
2023-05-15T02:12:03.805Z,989.43
2023-05-15T02:12:37.237Z,989.43
2023-05-15T02:13:07.683Z,989.53
2023-05-15T02:13:39.851Z,989.53
2023-05-15T02:13:56.182Z,989.33
2023-05-15T02:14:27.589Z,989.33
2023-05-15T02:14:59.764Z,989.53
2023-05-15T02:15:17.016Z,989.53
2023-05-15T02:15:38.014Z,989.43
2023-05-15T02:16:03.935Z,989.43
2023-05-15T02:16:36.663Z,989.43
2023-05-15T02:17:08.004Z,989.53
2023-05-15T02:17:39.898Z,989.53
2023-05-15T02:17:56.421Z,989.64
2023-05-15T02:18:27.732Z,989.64
2023-05-15T02:18:59.812Z,989.43
2023-05-15T02:19:16.391Z,989.43
2023-05-15T02:19:37.236Z,989.43
2023-05-15T02:20:05.427Z,989.43
2023-05-15T02:20:36.116Z,989.43
2023-05-15T02:21:07.563Z,989.43
2023-05-15T02:21:40.098Z,989.43
2023-05-15T02:21:56.217Z,989.33
2023-05-15T02:22:27.712Z,989.33
2023-05-15T02:22:59.974Z,989.23
2023-05-15T02:23:16.384Z,989.23
2023-05-15T02:23:37.315Z,989.33
2023-05-15T02:24:03.885Z,989.33
2023-05-15T02:24:36.121Z,989.33
2023-05-15T02:25:08.293Z,989.53
2023-05-15T02:25:39.677Z,989.53
2023-05-15T02:25:56.555Z,989.33
2023-05-15T02:26:27.617Z,989.33
2023-05-15T02:26:59.755Z,989.23
2023-05-15T02:27:16.083Z,989.23
2023-05-15T02:27:37.370Z,989.43
2023-05-15T02:28:03.894Z,989.43
2023-05-15T02:28:36.145Z,989.43
2023-05-15T02:29:07.777Z,989.53
2023-05-15T02:29:39.695Z,989.53
2023-05-15T02:29:56.244Z,989.33
2023-05-15T02:30:28.505Z,989.33
2023-05-15T02:30:59.764Z,989.43
2023-05-15T02:31:16.293Z,989.43
2023-05-15T02:31:37.404Z,989.43
2023-05-15T02:32:03.882Z,989.43
2023-05-15T02:32:36.275Z,989.43
2023-05-15T02:33:07.903Z,989.33
2023-05-15T02:33:39.800Z,989.33
2023-05-15T02:33:56.216Z,989.33
2023-05-15T02:34:27.737Z,989.33
2023-05-15T02:34:59.776Z,989.43
2023-05-15T02:35:16.710Z,989.43
2023-05-15T02:35:37.611Z,989.33
2023-05-15T02:36:03.897Z,989.33
2023-05-15T02:36:36.368Z,989.33
2023-05-15T02:37:07.822Z,989.53
2023-05-15T02:37:39.817Z,989.53
2023-05-15T02:37:56.457Z,989.23
2023-05-15T02:38:27.637Z,989.23
2023-05-15T02:38:59.697Z,989.23
2023-05-15T02:39:16.017Z,989.23
2023-05-15T02:39:37.574Z,989.23
2023-05-15T02:40:05.254Z,989.23
2023-05-15T02:40:36.853Z,989.23
2023-05-15T02:41:07.760Z,989.13
2023-05-15T02:41:39.915Z,989.13
2023-05-15T02:41:57.570Z,989.33
2023-05-15T02:42:27.658Z,989.33
2023-05-15T02:42:59.738Z,989.33
2023-05-15T02:43:16.147Z,989.33
2023-05-15T02:43:37.329Z,989.33
2023-05-15T02:44:03.904Z,989.33
2023-05-15T02:44:36.419Z,989.33
2023-05-15T02:45:09.378Z,989.43
2023-05-15T02:45:39.892Z,989.43
2023-05-15T02:45:56.699Z,989.23
2023-05-15T02:46:27.686Z,989.23
2023-05-15T02:46:59.738Z,989.03
2023-05-15T02:47:16.182Z,989.03
2023-05-15T02:47:37.668Z,989.13
2023-05-15T02:48:03.806Z,989.13
2023-05-15T02:48:36.530Z,989.13
2023-05-15T02:49:07.838Z,989.23
2023-05-15T02:49:39.924Z,989.23
2023-05-15T02:50:12.263Z,989.13
2023-05-15T02:50:37.248Z,989.23
2023-05-15T02:51:00.186Z,989.23
2023-05-15T02:51:16.115Z,989.23
2023-05-15T02:51:37.265Z,989.23
2023-05-15T02:52:04.003Z,989.23
2023-05-15T02:52:36.213Z,989.23
2023-05-15T02:53:07.747Z,989.23
2023-05-15T02:53:39.804Z,989.23
2023-05-15T02:53:56.239Z,989.13
2023-05-15T02:54:27.655Z,989.13
2023-05-15T02:54:59.761Z,989.13
2023-05-15T02:55:16.505Z,989.13
2023-05-15T02:55:37.281Z,989.13
2023-05-15T02:56:03.814Z,989.13
2023-05-15T02:56:36.129Z,989.13
2023-05-15T02:57:07.808Z,989.23
2023-05-15T02:57:39.760Z,989.23
2023-05-15T02:57:56.352Z,989.23
2023-05-15T02:58:27.754Z,989.23
2023-05-15T02:58:59.671Z,989.03
2023-05-15T02:59:16.063Z,989.03
2023-05-15T02:59:37.348Z,989.23
2023-05-15T03:00:05.957Z,989.23
2023-05-15T03:00:36.623Z,989.23
2023-05-15T03:01:08.293Z,989.23
2023-05-15T03:01:39.867Z,989.23
2023-05-15T03:01:56.273Z,989.03
2023-05-15T03:02:27.638Z,989.03
2023-05-15T03:02:59.752Z,989.03
2023-05-15T03:03:16.176Z,989.03
2023-05-15T03:03:37.298Z,988.93
2023-05-15T03:04:03.948Z,988.93
2023-05-15T03:04:36.284Z,988.93
2023-05-15T03:05:08.466Z,989.03
2023-05-15T03:05:39.721Z,989.03
2023-05-15T03:05:57.171Z,989.13
2023-05-15T03:06:27.670Z,989.13
2023-05-15T03:06:59.751Z,988.93
2023-05-15T03:07:15.976Z,988.93
2023-05-15T03:07:37.307Z,989.03
2023-05-15T03:08:03.938Z,989.03
2023-05-15T03:08:37.118Z,989.03
2023-05-15T03:09:08.165Z,989.23
2023-05-15T03:09:39.740Z,989.23
2023-05-15T03:09:56.213Z,989.13
2023-05-15T03:10:28.176Z,989.13
2023-05-15T03:10:59.760Z,989.23
2023-05-15T03:11:16.051Z,989.23
2023-05-15T03:11:37.215Z,989.03
2023-05-15T03:12:03.768Z,989.03
2023-05-15T03:12:36.374Z,989.03
2023-05-15T03:13:07.630Z,988.93
2023-05-15T03:13:39.806Z,988.93
2023-05-15T03:13:56.123Z,989.03
2023-05-15T03:14:27.581Z,989.03
2023-05-15T03:15:00.174Z,988.93
2023-05-15T03:15:17.219Z,988.93
2023-05-15T03:15:37.235Z,989.13
2023-05-15T03:16:03.766Z,989.13
2023-05-15T03:16:36.779Z,989.13
2023-05-15T03:17:07.759Z,989.13
2023-05-15T03:17:39.742Z,989.13
2023-05-15T03:17:56.283Z,989.23
2023-05-15T03:18:27.679Z,989.23
2023-05-15T03:18:59.861Z,989.13
2023-05-15T03:19:16.132Z,989.13
2023-05-15T03:19:37.126Z,989.13
2023-05-15T03:20:05.810Z,989.13
2023-05-15T03:20:36.336Z,989.13
2023-05-15T03:21:07.822Z,989.03
2023-05-15T03:21:39.778Z,989.03
2023-05-15T03:21:56.222Z,989.03
2023-05-15T03:22:27.870Z,989.03
2023-05-15T03:22:59.845Z,989.23
2023-05-15T03:23:16.089Z,989.23
2023-05-15T03:23:38.023Z,989.03
2023-05-15T03:24:04.542Z,989.03
2023-05-15T03:24:36.418Z,989.03
2023-05-15T03:25:08.799Z,988.93
2023-05-15T03:25:39.948Z,988.93
2023-05-15T03:25:56.860Z,989.03
2023-05-15T03:26:27.997Z,989.03
2023-05-15T03:26:59.896Z,988.93
2023-05-15T03:27:16.391Z,988.93
2023-05-15T03:27:37.677Z,989.23
2023-05-15T03:28:03.978Z,989.23
2023-05-15T03:28:36.923Z,989.23
2023-05-15T03:29:08.089Z,989.03
2023-05-15T03:29:39.920Z,989.03
2023-05-15T03:29:56.929Z,989.03
2023-05-15T03:30:28.846Z,989.03
2023-05-15T03:31:00.216Z,988.82
2023-05-15T03:31:16.443Z,988.82
2023-05-15T03:31:37.595Z,988.82
2023-05-15T03:32:04.416Z,988.82
2023-05-15T03:32:36.540Z,988.82
2023-05-15T03:33:08.557Z,988.82
2023-05-15T03:33:40.016Z,988.82
2023-05-15T03:33:56.550Z,988.93
2023-05-15T03:34:28.005Z,988.93
2023-05-15T03:34:59.952Z,989.03
2023-05-15T03:35:16.863Z,989.03
2023-05-15T03:35:37.398Z,988.72
2023-05-15T03:36:04.125Z,988.72
2023-05-15T03:36:36.496Z,988.72
2023-05-15T03:37:07.834Z,989.03
2023-05-15T03:37:39.907Z,989.03
2023-05-15T03:37:56.522Z,988.82
2023-05-15T03:38:28.176Z,988.82
2023-05-15T03:38:59.878Z,989.03
2023-05-15T03:39:16.395Z,989.03
2023-05-15T03:39:37.527Z,988.93
2023-05-15T03:40:05.671Z,988.93
2023-05-15T03:40:36.509Z,988.93
2023-05-15T03:41:07.887Z,988.93
2023-05-15T03:41:40.104Z,988.93
2023-05-15T03:42:12.304Z,988.93
2023-05-15T03:42:38.517Z,989.13
2023-05-15T03:43:00.321Z,989.13
2023-05-15T03:43:16.571Z,989.13
2023-05-15T03:43:37.574Z,989.03
2023-05-15T03:44:04.377Z,989.03
2023-05-15T03:44:36.441Z,989.03
2023-05-15T03:45:09.374Z,988.93
2023-05-15T03:45:40.102Z,988.93
2023-05-15T03:45:57.035Z,989.03
2023-05-15T03:46:27.967Z,989.03
2023-05-15T03:46:59.991Z,988.72
2023-05-15T03:47:16.411Z,988.72
2023-05-15T03:47:37.477Z,988.93
2023-05-15T03:48:04.131Z,988.93
2023-05-15T03:48:36.500Z,988.93
2023-05-15T03:49:07.890Z,989.03
2023-05-15T03:49:40.020Z,989.03
2023-05-15T03:49:56.527Z,988.82
2023-05-15T03:50:28.620Z,988.82
2023-05-15T03:51:00.118Z,989.03
2023-05-15T03:51:16.613Z,989.03
2023-05-15T03:51:37.758Z,989.13
2023-05-15T03:52:04.334Z,989.13
2023-05-15T03:52:36.623Z,989.13
2023-05-15T03:53:07.957Z,988.82
2023-05-15T03:53:39.923Z,988.82
2023-05-15T03:53:56.626Z,988.93
2023-05-15T03:54:28.207Z,988.93
2023-05-15T03:55:00.841Z,988.82
2023-05-15T03:55:16.301Z,988.82
2023-05-15T03:55:37.916Z,988.82
2023-05-15T03:56:04.373Z,988.82
2023-05-15T03:56:36.506Z,988.82
2023-05-15T03:57:07.924Z,988.93
2023-05-15T03:57:39.946Z,988.93
2023-05-15T03:57:56.503Z,988.72
2023-05-15T03:58:27.858Z,988.72
2023-05-15T03:58:59.992Z,988.82
2023-05-15T03:59:16.277Z,988.82
2023-05-15T03:59:37.548Z,988.82
2023-05-15T04:00:06.413Z,988.82
2023-05-15T04:00:36.548Z,988.82
2023-05-15T04:01:08.800Z,988.93
2023-05-15T04:01:54.727Z,988.93
2023-05-15T04:02:27.929Z,989.13
2023-05-15T04:02:59.977Z,988.82
2023-05-15T04:03:16.389Z,988.82
2023-05-15T04:03:37.421Z,988.93
2023-05-15T04:04:04.144Z,988.93
2023-05-15T04:04:36.686Z,988.93
2023-05-15T04:05:08.815Z,988.93
2023-05-15T04:05:40.017Z,988.93
2023-05-15T04:05:56.954Z,988.93
2023-05-15T04:06:27.772Z,988.93
2023-05-15T04:07:00.069Z,988.93
2023-05-15T04:07:16.279Z,988.93
2023-05-15T04:07:37.386Z,988.93
2023-05-15T04:08:04.313Z,988.93
2023-05-15T04:08:36.488Z,988.93
2023-05-15T04:09:07.938Z,988.82
2023-05-15T04:09:40.108Z,988.82
2023-05-15T04:09:56.518Z,988.93
2023-05-15T04:10:28.455Z,988.93
2023-05-15T04:10:59.968Z,988.82
2023-05-15T04:11:16.414Z,988.82
2023-05-15T04:11:37.491Z,988.93
2023-05-15T04:12:04.371Z,988.93
2023-05-15T04:12:36.495Z,988.93
2023-05-15T04:13:07.937Z,989.03
2023-05-15T04:13:39.954Z,989.03
2023-05-15T04:13:56.527Z,989.03
2023-05-15T04:14:27.950Z,989.03
2023-05-15T04:14:59.896Z,989.03
2023-05-15T04:15:17.255Z,989.03
2023-05-15T04:15:37.523Z,988.72
2023-05-15T04:16:03.998Z,988.72
2023-05-15T04:16:37.549Z,988.72
2023-05-15T04:17:07.881Z,988.93
2023-05-15T04:17:39.958Z,988.93
2023-05-15T04:17:56.841Z,988.82
2023-05-15T04:18:28.236Z,988.82
2023-05-15T04:19:00.043Z,988.93
2023-05-15T04:19:16.503Z,988.93
2023-05-15T04:19:37.370Z,988.93
2023-05-15T04:20:05.843Z,988.93
2023-05-15T04:20:36.495Z,988.93
2023-05-15T04:21:07.961Z,988.93
2023-05-15T04:21:39.976Z,988.93
2023-05-15T04:21:56.731Z,989.13
2023-05-15T04:22:28.262Z,989.13
2023-05-15T04:23:00.062Z,988.82
2023-05-15T04:23:16.451Z,988.82
2023-05-15T04:23:37.405Z,988.93
2023-05-15T04:24:04.245Z,988.93
2023-05-15T04:24:37.007Z,988.93
2023-05-15T04:25:08.888Z,988.82
2023-05-15T04:25:39.955Z,988.82
2023-05-15T04:25:56.802Z,988.93
2023-05-15T04:26:27.898Z,988.93
2023-05-15T04:26:59.948Z,989.03
2023-05-15T04:27:16.281Z,989.03
2023-05-15T04:27:37.404Z,988.93
2023-05-15T04:28:04.110Z,988.93
2023-05-15T04:28:36.386Z,988.93
2023-05-15T04:29:07.936Z,988.93
2023-05-15T04:29:40.137Z,988.93
2023-05-15T04:29:56.585Z,988.93
2023-05-15T04:30:28.940Z,988.93
2023-05-15T04:30:59.926Z,988.82
2023-05-15T04:31:16.349Z,988.82
2023-05-15T04:31:37.456Z,988.72
2023-05-15T04:32:04.224Z,988.72
2023-05-15T04:32:36.521Z,988.72
2023-05-15T04:33:07.901Z,988.62
2023-05-15T04:33:39.999Z,988.62
2023-05-15T04:33:56.521Z,988.82
2023-05-15T04:34:27.840Z,988.82
2023-05-15T04:34:59.797Z,988.82
2023-05-15T04:35:16.674Z,988.82
2023-05-15T04:35:37.983Z,988.93
2023-05-15T04:36:03.984Z,988.93
2023-05-15T04:36:37.203Z,988.93
2023-05-15T04:37:07.950Z,988.72
2023-05-15T04:37:39.950Z,988.72
2023-05-15T04:37:56.600Z,988.62
2023-05-15T04:38:28.299Z,988.62
2023-05-15T04:39:00.044Z,988.93
2023-05-15T04:39:16.482Z,988.93
2023-05-15T04:39:38.242Z,989.03
2023-05-15T04:40:05.716Z,989.03
2023-05-15T04:40:36.543Z,989.03
2023-05-15T04:41:07.940Z,988.82
2023-05-15T04:41:40.078Z,988.82
2023-05-15T04:41:56.762Z,988.93
2023-05-15T04:42:28.229Z,988.93
2023-05-15T04:42:59.929Z,988.72
2023-05-15T04:43:16.220Z,988.72
2023-05-15T04:43:38.280Z,988.82
2023-05-15T04:44:03.991Z,988.82
2023-05-15T04:44:36.890Z,988.82
2023-05-15T04:45:09.398Z,989.03
2023-05-15T04:45:40.353Z,989.03
2023-05-15T04:45:56.960Z,989.03
2023-05-15T04:46:27.894Z,989.03
2023-05-15T04:46:59.906Z,988.93
2023-05-15T04:47:16.448Z,988.93
2023-05-15T04:47:37.529Z,988.82
2023-05-15T04:48:04.071Z,988.82
2023-05-15T04:48:36.896Z,988.82
2023-05-15T04:49:08.082Z,988.93
2023-05-15T04:49:40.021Z,988.93
2023-05-15T04:50:12.275Z,988.82
2023-05-15T04:50:37.804Z,988.62
2023-05-15T04:51:00.305Z,988.62
2023-05-15T04:51:16.522Z,988.62
2023-05-15T04:51:37.464Z,988.93
2023-05-15T04:52:04.178Z,988.93
2023-05-15T04:52:37.423Z,988.93
2023-05-15T04:53:08.235Z,988.93
2023-05-15T04:53:40.081Z,988.93
2023-05-15T04:53:56.974Z,988.82
2023-05-15T04:54:27.833Z,988.82
2023-05-15T04:54:59.979Z,988.93
2023-05-15T04:55:16.843Z,988.93
2023-05-15T04:55:37.434Z,988.82
2023-05-15T04:56:04.241Z,988.82
2023-05-15T04:56:36.759Z,988.82
2023-05-15T04:57:08.053Z,988.93
2023-05-15T04:57:40.000Z,988.93
2023-05-15T04:57:56.526Z,988.72
2023-05-15T04:58:27.825Z,988.72
2023-05-15T04:58:59.931Z,988.82
2023-05-15T04:59:16.499Z,988.82
2023-05-15T04:59:37.556Z,988.72
2023-05-15T05:00:06.286Z,988.72
2023-05-15T05:00:36.619Z,988.72
2023-05-15T05:01:08.564Z,988.62
2023-05-15T05:01:40.028Z,988.62
2023-05-15T05:01:56.686Z,988.72
2023-05-15T05:02:28.035Z,988.72
2023-05-15T05:02:59.982Z,989.13
2023-05-15T05:03:16.557Z,989.13
2023-05-15T05:03:37.548Z,988.93
2023-05-15T05:04:04.193Z,988.93
2023-05-15T05:04:36.543Z,988.93
2023-05-15T05:05:08.544Z,988.93
2023-05-15T05:05:40.269Z,988.93
2023-05-15T05:06:12.131Z,988.82
2023-05-15T05:06:37.376Z,988.82
2023-05-15T05:06:59.854Z,988.82
2023-05-15T05:07:16.427Z,988.82
2023-05-15T05:07:37.518Z,988.93
2023-05-15T05:08:04.267Z,988.93
2023-05-15T05:08:37.060Z,988.93
2023-05-15T05:09:07.951Z,988.93
2023-05-15T05:09:39.930Z,988.93
2023-05-15T05:09:56.476Z,988.93
2023-05-15T05:10:28.530Z,988.93
2023-05-15T05:11:00.097Z,988.82
2023-05-15T05:11:16.347Z,988.82
2023-05-15T05:11:37.701Z,988.93
2023-05-15T05:12:04.118Z,988.93
2023-05-15T05:12:36.758Z,988.93
2023-05-15T05:13:08.058Z,989.03
2023-05-15T05:13:40.223Z,989.03
2023-05-15T05:13:56.757Z,989.03
2023-05-15T05:14:27.792Z,989.03
2023-05-15T05:14:59.949Z,988.72
2023-05-15T05:15:17.228Z,988.72
2023-05-15T05:15:37.799Z,988.82
2023-05-15T05:16:05.294Z,988.82
2023-05-15T05:16:36.483Z,988.82
2023-05-15T05:17:08.200Z,988.82
2023-05-15T05:17:40.044Z,988.82
2023-05-15T05:17:56.456Z,988.93
2023-05-15T05:18:27.892Z,988.93
2023-05-15T05:19:00.345Z,988.93
2023-05-15T05:19:16.631Z,988.93
2023-05-15T05:19:37.928Z,988.93
2023-05-15T05:20:05.644Z,988.93
2023-05-15T05:20:36.781Z,988.93
2023-05-15T05:21:08.200Z,988.93
2023-05-15T05:21:40.255Z,988.93
2023-05-15T05:21:57.108Z,988.93
2023-05-15T05:22:27.885Z,988.93
2023-05-15T05:23:00.003Z,988.93
2023-05-15T05:23:16.395Z,988.93
2023-05-15T05:23:37.868Z,988.93
2023-05-15T05:24:04.116Z,988.93
2023-05-15T05:24:36.567Z,988.93
2023-05-15T05:25:08.670Z,988.82
2023-05-15T05:25:40.415Z,988.82
2023-05-15T05:25:57.298Z,988.72
2023-05-15T05:26:27.981Z,988.72
2023-05-15T05:26:59.990Z,988.82
2023-05-15T05:27:16.328Z,988.82
2023-05-15T05:27:37.969Z,988.82
2023-05-15T05:28:04.452Z,988.82
2023-05-15T05:28:36.584Z,988.82
2023-05-15T05:29:08.112Z,988.82
2023-05-15T05:29:40.266Z,988.82
2023-05-15T05:29:56.996Z,988.82
2023-05-15T05:30:30.339Z,988.82
2023-05-15T05:31:00.614Z,988.93
2023-05-15T05:31:16.582Z,988.93
2023-05-15T05:31:37.754Z,988.82
2023-05-15T05:32:04.227Z,988.82
2023-05-15T05:32:36.699Z,988.82
2023-05-15T05:33:08.135Z,988.93
2023-05-15T05:33:40.140Z,988.93
2023-05-15T05:33:56.679Z,988.82
2023-05-15T05:34:28.077Z,988.82
2023-05-15T05:35:01.298Z,988.82
2023-05-15T05:35:16.559Z,988.82